createdAt,value
2022-11-28T00:01:28.788Z,2.90
2022-11-28T00:04:04.109Z,2.90
2022-11-28T00:06:39.219Z,2.90
2022-11-28T00:09:14.742Z,2.90
2022-11-28T00:11:49.359Z,3.00
2022-11-28T00:14:23.167Z,2.90
2022-11-28T00:17:00.232Z,2.90
2022-11-28T00:19:35.271Z,3.00
2022-11-28T00:22:09.332Z,2.90
2022-11-28T00:24:46.266Z,2.90
2022-11-28T00:27:19.896Z,2.90
2022-11-28T00:29:55.432Z,2.90
2022-11-28T00:32:32.478Z,2.90
2022-11-28T00:35:06.498Z,2.90
2022-11-28T00:37:40.713Z,2.90
2022-11-28T00:40:19.258Z,2.80
2022-11-28T00:42:53.200Z,2.80
2022-11-28T00:45:30.150Z,2.80
2022-11-28T00:48:04.537Z,2.80
2022-11-28T00:50:38.351Z,2.80
2022-11-28T00:53:12.584Z,2.70
2022-11-28T00:55:48.402Z,2.70
2022-11-28T00:58:24.612Z,2.70
2022-11-28T01:00:58.663Z,2.70
2022-11-28T01:03:34.477Z,2.70
2022-11-28T01:06:08.618Z,2.60
2022-11-28T01:08:49.868Z,2.70
2022-11-28T01:11:26.469Z,3.00
2022-11-28T01:14:02.601Z,2.60
2022-11-28T01:16:41.645Z,2.50
2022-11-28T01:19:15.001Z,2.50
2022-11-28T01:21:49.521Z,2.50
2022-11-28T01:24:21.572Z,2.50
2022-11-28T01:26:58.570Z,2.50
2022-11-28T01:29:32.636Z,2.40
2022-11-28T01:35:12.873Z,2.40
2022-11-28T01:37:46.790Z,2.30
2022-11-28T01:40:21.011Z,2.20
2022-11-28T01:42:58.398Z,2.20
2022-11-28T01:45:33.401Z,2.10
2022-11-28T01:48:07.579Z,2.10
2022-11-28T01:50:42.357Z,2.10
2022-11-28T01:53:16.721Z,2.00
2022-11-28T01:55:52.776Z,1.90
2022-11-28T01:58:28.663Z,1.90
2022-11-28T02:01:03.700Z,1.90
2022-11-28T02:03:36.876Z,1.80
2022-11-28T02:06:10.909Z,1.80
2022-11-28T02:08:46.236Z,1.70
2022-11-28T02:11:26.037Z,1.70
2022-11-28T02:14:04.560Z,1.70
2022-11-28T02:16:45.597Z,1.70
2022-11-28T02:19:39.901Z,1.70
2022-11-28T02:22:14.694Z,1.70
2022-11-28T02:24:53.790Z,1.70
2022-11-28T02:27:32.837Z,1.70
2022-11-28T02:30:11.941Z,1.70
2022-11-28T02:32:58.886Z,1.60
2022-11-28T02:35:35.806Z,1.60
2022-11-28T02:38:12.372Z,1.60
2022-11-28T02:40:45.780Z,1.70
2022-11-28T02:43:21.064Z,1.60
2022-11-28T02:45:57.424Z,1.60
2022-11-28T02:48:34.963Z,1.60
2022-11-28T02:51:09.958Z,1.60
2022-11-28T02:53:44.775Z,1.60
2022-11-28T02:56:21.464Z,1.60
2022-11-28T02:58:55.034Z,1.60
2022-11-28T03:01:31.239Z,1.60
2022-11-28T03:04:16.600Z,1.60
2022-11-28T03:06:59.631Z,1.60
2022-11-28T03:09:28.961Z,1.60
2022-11-28T03:12:08.305Z,1.60
2022-11-28T03:14:45.030Z,1.60
2022-11-28T03:17:21.215Z,1.60
2022-11-28T03:19:59.772Z,1.60
2022-11-28T03:22:33.106Z,1.60
2022-11-28T03:25:09.351Z,1.60
2022-11-28T03:27:44.767Z,1.60
2022-11-28T03:30:19.740Z,1.60
2022-11-28T03:32:55.232Z,1.60
2022-11-28T03:35:32.608Z,1.60
2022-11-28T03:38:05.041Z,1.60
2022-11-28T03:40:40.406Z,1.60
2022-11-28T03:43:15.441Z,1.60
2022-11-28T03:45:50.115Z,1.60
2022-11-28T03:48:25.295Z,1.60
2022-11-28T03:51:02.165Z,1.60
2022-11-28T03:53:38.509Z,2.50
2022-11-28T03:56:12.836Z,1.60
2022-11-28T03:58:47.887Z,1.60
2022-11-28T04:01:24.843Z,2.10
2022-11-28T04:04:00.724Z,1.60
2022-11-28T04:06:33.779Z,1.50
2022-11-28T04:09:14.415Z,1.60
2022-11-28T04:11:51.306Z,1.60
2022-11-28T04:14:25.866Z,1.60
2022-11-28T04:17:00.489Z,1.60
2022-11-28T04:19:34.734Z,1.50
2022-11-28T04:22:11.849Z,1.60
2022-11-28T04:24:49.831Z,1.50
2022-11-28T04:27:24.995Z,1.60
2022-11-28T04:30:00.247Z,1.50
2022-11-28T04:32:35.868Z,1.50
2022-11-28T04:35:10.789Z,1.50
2022-11-28T04:37:44.979Z,1.50
2022-11-28T04:40:24.098Z,1.50
2022-11-28T04:43:01.988Z,1.50
2022-11-28T04:45:37.285Z,1.50
2022-11-28T04:48:11.387Z,1.50
2022-11-28T04:50:46.898Z,1.50
2022-11-28T04:53:22.423Z,1.50
2022-11-28T04:55:56.832Z,1.40
2022-11-28T04:58:34.898Z,1.50
2022-11-28T05:01:09.676Z,1.50
2022-11-28T05:03:42.912Z,1.50
2022-11-28T05:06:24.728Z,1.50
2022-11-28T05:08:57.284Z,1.50
2022-11-28T05:11:31.918Z,1.50
2022-11-28T05:14:09.182Z,1.50
2022-11-28T05:16:43.737Z,1.60
2022-11-28T05:19:16.809Z,1.60
2022-11-28T05:21:53.474Z,1.60
2022-11-28T05:24:40.376Z,1.60
2022-11-28T05:27:17.595Z,1.60
2022-11-28T05:29:54.530Z,1.60
2022-11-28T05:32:28.832Z,1.60
2022-11-28T05:35:02.955Z,1.60
2022-11-28T05:37:37.475Z,1.80
2022-11-28T05:40:12.773Z,1.60
2022-11-28T05:42:47.459Z,1.60
2022-11-28T05:45:24.026Z,1.60
2022-11-28T05:47:58.701Z,1.70
2022-11-28T05:50:35.704Z,1.70
2022-11-28T05:53:12.216Z,1.70
2022-11-28T05:55:46.319Z,1.70
2022-11-28T05:58:21.553Z,1.60
2022-11-28T06:00:59.302Z,1.60
2022-11-28T06:03:34.129Z,1.60
2022-11-28T06:06:09.763Z,1.60
2022-11-28T06:08:45.572Z,1.60
2022-11-28T06:11:19.006Z,1.60
2022-11-28T06:13:53.655Z,1.60
2022-11-28T06:16:29.360Z,1.60
2022-11-28T06:19:04.149Z,1.60
2022-11-28T06:21:38.310Z,1.60
2022-11-28T06:24:12.184Z,1.60
2022-11-28T06:26:46.807Z,1.60
2022-11-28T06:29:21.521Z,1.60
2022-11-28T06:31:58.829Z,1.60
2022-11-28T06:34:33.869Z,1.60
2022-11-28T06:37:08.877Z,1.60
2022-11-28T06:39:43.662Z,1.60
2022-11-28T06:42:20.474Z,1.60
2022-11-28T06:44:56.355Z,1.60
2022-11-28T06:47:33.458Z,1.60
2022-11-28T06:50:10.882Z,1.60
2022-11-28T06:52:45.440Z,1.70
2022-11-28T06:55:20.048Z,1.70
2022-11-28T06:57:56.620Z,1.70
2022-11-28T07:00:30.662Z,1.70
2022-11-28T07:03:06.558Z,1.70
2022-11-28T07:05:40.824Z,1.70
2022-11-28T07:08:15.864Z,1.70
2022-11-28T07:10:50.423Z,1.80
2022-11-28T07:13:26.034Z,1.80
2022-11-28T07:16:01.063Z,1.80
2022-11-28T07:18:38.695Z,1.80
2022-11-28T07:21:11.584Z,1.90
2022-11-28T07:23:45.893Z,1.90
2022-11-28T07:26:21.555Z,1.90
2022-11-28T07:28:56.376Z,1.90
2022-11-28T07:31:33.842Z,2.00
2022-11-28T07:34:12.452Z,2.00
2022-11-28T07:36:48.124Z,2.00
2022-11-28T07:39:23.793Z,2.00
2022-11-28T07:41:58.945Z,2.00
2022-11-28T07:44:33.445Z,2.00
2022-11-28T07:47:07.394Z,1.90
2022-11-28T07:49:45.799Z,1.90
2022-11-28T07:52:18.801Z,1.90
2022-11-28T07:54:55.876Z,2.00
2022-11-28T07:57:30.823Z,2.00
2022-11-28T08:00:06.413Z,2.00
2022-11-28T08:02:46.295Z,2.00
2022-11-28T08:05:23.127Z,2.10
2022-11-28T08:07:59.662Z,2.10
2022-11-28T08:10:32.852Z,2.10
2022-11-28T08:13:07.747Z,2.10
2022-11-28T08:15:42.415Z,2.20
2022-11-28T08:18:16.906Z,2.20
2022-11-28T08:20:56.094Z,2.10
2022-11-28T08:23:30.743Z,2.10
2022-11-28T08:26:04.165Z,2.20
2022-11-28T08:28:38.228Z,2.20
2022-11-28T08:31:12.890Z,2.20
2022-11-28T08:33:50.069Z,2.30
2022-11-28T08:36:29.152Z,2.30
2022-11-28T08:39:22.289Z,2.30
2022-11-28T08:42:00.367Z,2.40
2022-11-28T08:44:35.394Z,2.50
2022-11-28T08:47:11.828Z,2.50
2022-11-28T08:49:44.695Z,2.50
2022-11-28T08:52:23.136Z,2.60
2022-11-28T08:54:57.467Z,2.60
2022-11-28T08:57:33.674Z,2.60
2022-11-28T09:00:08.957Z,2.70
2022-11-28T09:02:43.595Z,2.70
2022-11-28T09:05:20.063Z,2.80
2022-11-28T09:07:57.422Z,2.90
2022-11-28T09:10:35.437Z,3.00
2022-11-28T09:13:09.777Z,3.00
2022-11-28T09:15:42.357Z,3.00
2022-11-28T09:18:18.384Z,3.00
2022-11-28T09:20:52.477Z,3.10
2022-11-28T09:23:30.505Z,3.10
2022-11-28T09:26:04.371Z,3.10
2022-11-28T09:28:40.826Z,3.20
2022-11-28T09:31:15.996Z,3.20
2022-11-28T09:33:52.109Z,3.20
2022-11-28T09:36:29.052Z,3.30
2022-11-28T09:39:07.672Z,3.40
2022-11-28T09:41:42.852Z,3.50
2022-11-28T09:44:19.861Z,3.40
2022-11-28T09:46:54.906Z,3.50
2022-11-28T09:49:39.851Z,3.50
2022-11-28T09:52:19.074Z,3.50
2022-11-28T09:54:59.863Z,3.50
2022-11-28T09:57:35.610Z,3.60
2022-11-28T10:00:11.478Z,3.60
2022-11-28T10:03:04.682Z,3.60
2022-11-28T10:05:37.305Z,3.70
2022-11-28T10:08:18.633Z,3.90
2022-11-28T10:10:58.574Z,4.10
2022-11-28T10:13:59.849Z,4.30
2022-11-28T10:16:30.917Z,4.50
2022-11-28T10:19:15.915Z,4.60
2022-11-28T10:22:00.740Z,4.80
2022-11-28T10:24:38.774Z,4.90
2022-11-28T10:27:16.654Z,4.90
2022-11-28T10:29:51.607Z,5.00
2022-11-28T10:32:28.176Z,5.10
2022-11-28T10:35:04.669Z,5.20
2022-11-28T10:37:40.543Z,5.20
2022-11-28T10:40:20.253Z,5.20
2022-11-28T10:42:58.490Z,5.20
2022-11-28T10:45:35.391Z,5.10
2022-11-28T10:48:39.581Z,5.10
2022-11-28T10:51:09.003Z,5.00
2022-11-28T10:53:44.838Z,5.00
2022-11-28T10:56:22.199Z,5.00
2022-11-28T10:59:00.523Z,5.00
2022-11-28T11:01:35.122Z,5.10
2022-11-28T11:04:10.419Z,5.10
2022-11-28T11:07:07.149Z,5.10
2022-11-28T11:09:39.163Z,5.10
2022-11-28T11:12:15.436Z,5.10
2022-11-28T11:14:52.106Z,5.10
2022-11-28T11:17:31.361Z,5.10
2022-11-28T11:20:22.144Z,5.10
2022-11-28T11:22:58.245Z,5.20
2022-11-28T11:25:33.378Z,5.20
2022-11-28T11:28:07.692Z,5.20
2022-11-28T11:30:44.068Z,5.20
2022-11-28T11:33:18.877Z,5.20
2022-11-28T11:35:55.631Z,5.20
2022-11-28T11:38:36.178Z,5.20
2022-11-28T11:41:24.661Z,5.30
2022-11-28T11:44:23.697Z,5.30
2022-11-28T11:46:56.009Z,5.30
2022-11-28T11:49:37.305Z,5.30
2022-11-28T11:52:26.149Z,5.30
2022-11-28T11:55:01.567Z,5.30
2022-11-28T11:57:36.255Z,5.30
2022-11-28T12:00:10.933Z,5.30
2022-11-28T12:02:49.964Z,5.30
2022-11-28T12:05:24.075Z,5.30
2022-11-28T12:08:01.348Z,5.30
2022-11-28T12:10:36.022Z,5.20
2022-11-28T12:13:12.082Z,5.20
2022-11-28T12:15:50.261Z,5.20
2022-11-28T12:18:26.237Z,5.20
2022-11-28T12:21:05.092Z,5.20
2022-11-28T12:23:46.613Z,5.20
2022-11-28T12:26:22.220Z,5.10
2022-11-28T12:29:00.548Z,5.10
2022-11-28T12:31:35.017Z,5.10
2022-11-28T12:34:14.381Z,5.10
2022-11-28T12:36:50.043Z,5.10
2022-11-28T12:39:29.717Z,5.00
2022-11-28T12:42:13.829Z,5.00
2022-11-28T12:44:54.881Z,5.00
2022-11-28T12:47:33.124Z,6.00
2022-11-28T12:50:13.310Z,5.00
2022-11-28T12:52:49.604Z,5.00
2022-11-28T12:55:31.585Z,4.90
2022-11-28T12:58:07.165Z,4.90
2022-11-28T13:00:44.031Z,4.90
2022-11-28T13:03:22.736Z,4.90
2022-11-28T13:05:58.616Z,4.90
2022-11-28T13:08:48.814Z,4.90
2022-11-28T13:11:30.804Z,4.90
2022-11-28T13:14:08.387Z,4.80
2022-11-28T13:16:45.065Z,4.80
2022-11-28T13:19:24.334Z,4.80
2022-11-28T13:21:59.568Z,4.70
2022-11-28T13:24:35.019Z,4.70
2022-11-28T13:27:13.884Z,4.70
2022-11-28T13:29:47.905Z,4.70
2022-11-28T13:32:24.897Z,4.70
2022-11-28T13:35:00.043Z,4.70
2022-11-28T13:40:29.843Z,4.70
2022-11-28T13:43:09.473Z,4.70
2022-11-28T13:45:45.388Z,4.70
2022-11-28T13:49:06.162Z,4.70
2022-11-28T13:51:31.923Z,4.70
2022-11-28T13:54:21.247Z,4.60
2022-11-28T13:57:06.740Z,4.60
2022-11-28T13:59:43.380Z,4.60
2022-11-28T14:02:23.255Z,4.50
2022-11-28T14:04:59.157Z,4.60
2022-11-28T14:07:36.265Z,4.60
2022-11-28T14:10:23.403Z,4.60
2022-11-28T14:13:02.010Z,4.50
2022-11-28T14:15:41.389Z,4.50
2022-11-28T14:18:47.813Z,4.50
2022-11-28T14:21:13.615Z,4.50
2022-11-28T14:23:49.185Z,4.40
2022-11-28T14:26:26.752Z,4.40
2022-11-28T14:29:02.523Z,4.40
2022-11-28T14:31:40.431Z,4.40
2022-11-28T14:34:35.768Z,4.40
2022-11-28T14:37:09.233Z,4.30
2022-11-28T14:39:43.760Z,4.30
2022-11-28T14:42:58.016Z,4.30
2022-11-28T14:45:34.234Z,4.20
2022-11-28T14:48:16.844Z,4.20
2022-11-28T14:50:59.341Z,4.10
2022-11-28T14:53:47.541Z,4.10
2022-11-28T14:56:27.749Z,4.00
2022-11-28T14:59:05.221Z,4.00
2022-11-28T15:01:44.730Z,4.00
2022-11-28T15:04:40.478Z,3.90
2022-11-28T15:07:20.219Z,3.90
2022-11-28T15:09:59.159Z,3.80
2022-11-28T15:12:36.740Z,3.80
2022-11-28T15:15:10.667Z,3.80
2022-11-28T15:17:46.403Z,3.70
2022-11-28T15:20:25.433Z,3.70
2022-11-28T15:23:02.310Z,3.70
2022-11-28T15:25:38.375Z,3.70
2022-11-28T15:28:15.801Z,3.70
2022-11-28T15:30:51.292Z,3.60
2022-11-28T15:33:25.722Z,3.60
2022-11-28T15:36:02.855Z,3.60
2022-11-28T15:38:40.571Z,3.60
2022-11-28T15:41:14.838Z,3.60
2022-11-28T15:43:51.797Z,3.60
2022-11-28T15:46:27.569Z,3.60
2022-11-28T15:49:01.968Z,3.60
2022-11-28T15:51:36.869Z,3.60
2022-11-28T15:54:25.747Z,3.60
2022-11-28T15:57:01.086Z,3.70
2022-11-28T15:59:36.858Z,3.70
2022-11-28T16:02:15.909Z,3.70
2022-11-28T16:04:52.943Z,3.70
2022-11-28T16:07:31.009Z,3.70
2022-11-28T16:10:11.372Z,3.70
2022-11-28T16:12:45.624Z,3.70
2022-11-28T16:15:20.432Z,3.80
2022-11-28T16:17:54.582Z,3.80
2022-11-28T16:20:29.007Z,3.80
2022-11-28T16:23:03.846Z,3.80
2022-11-28T16:25:39.467Z,3.90
2022-11-28T16:28:28.758Z,3.90
2022-11-28T16:31:03.344Z,3.90
2022-11-28T16:33:38.466Z,3.90
2022-11-28T16:36:40.467Z,3.90
2022-11-28T16:39:17.620Z,3.90
2022-11-28T16:41:55.138Z,3.90
2022-11-28T16:44:30.384Z,4.00
2022-11-28T16:47:04.513Z,4.00
2022-11-28T16:49:43.722Z,4.00
2022-11-28T16:52:33.687Z,4.00
2022-11-28T16:55:07.580Z,4.00
2022-11-28T16:57:50.518Z,4.00
2022-11-28T17:03:50.443Z,4.00
2022-11-28T17:06:26.509Z,4.00
2022-11-28T17:09:01.636Z,4.00
2022-11-28T17:11:36.863Z,4.00
2022-11-28T17:14:17.961Z,4.00
2022-11-28T17:16:52.634Z,4.00
2022-11-28T17:19:30.477Z,4.00
2022-11-28T17:22:04.438Z,4.00
2022-11-28T17:24:38.732Z,4.00
2022-11-28T17:27:11.998Z,4.00
2022-11-28T17:29:49.262Z,4.00
2022-11-28T17:32:23.584Z,4.00
2022-11-28T17:34:57.481Z,4.00
2022-11-28T17:37:33.029Z,4.00
2022-11-28T17:40:20.817Z,4.00
2022-11-28T17:42:55.674Z,4.00
2022-11-28T17:45:32.544Z,3.90
2022-11-28T17:48:08.586Z,3.90
2022-11-28T17:50:42.553Z,4.00
2022-11-28T17:53:20.049Z,4.00
2022-11-28T17:55:59.120Z,3.90
2022-11-28T17:58:37.524Z,3.90
2022-11-28T18:01:15.360Z,3.90
2022-11-28T18:03:49.411Z,3.90
2022-11-28T18:06:25.149Z,3.90
2022-11-28T18:09:01.179Z,3.90
2022-11-28T18:11:36.117Z,3.90
2022-11-28T18:14:10.229Z,3.90
2022-11-28T18:16:47.812Z,3.80
2022-11-28T18:19:20.753Z,3.80
2022-11-28T18:21:55.283Z,3.80
2022-11-28T18:24:29.641Z,3.80
2022-11-28T18:27:03.068Z,3.80
2022-11-28T18:29:38.861Z,3.80
2022-11-28T18:32:14.508Z,3.80
2022-11-28T18:34:48.303Z,3.70
2022-11-28T18:37:24.642Z,3.80
2022-11-28T18:39:58.930Z,3.80
2022-11-28T18:42:32.305Z,3.70
2022-11-28T18:45:06.410Z,3.70
2022-11-28T18:47:48.456Z,3.70
2022-11-28T18:50:22.584Z,3.70
2022-11-28T18:52:58.425Z,3.70
2022-11-28T18:55:33.064Z,3.70
2022-11-28T18:58:08.189Z,3.70
2022-11-28T19:00:42.683Z,3.70
2022-11-28T19:03:20.077Z,3.70
2022-11-28T19:05:54.759Z,3.60
2022-11-28T19:08:29.766Z,3.60
2022-11-28T19:11:07.906Z,3.60
2022-11-28T19:13:46.650Z,3.50
2022-11-28T19:16:21.704Z,3.50
2022-11-28T19:18:56.877Z,3.50
2022-11-28T19:21:33.441Z,3.50
2022-11-28T19:24:11.965Z,3.50
2022-11-28T19:26:46.388Z,3.50
2022-11-28T19:29:20.955Z,3.40
2022-11-28T19:31:56.115Z,3.50
2022-11-28T19:34:33.837Z,3.50
2022-11-28T19:37:08.810Z,3.50
2022-11-28T19:39:44.223Z,3.40
2022-11-28T19:42:19.693Z,3.40
2022-11-28T19:44:53.360Z,3.40
2022-11-28T19:47:28.912Z,3.40
2022-11-28T19:50:09.969Z,3.40
2022-11-28T19:52:45.101Z,3.40
2022-11-28T19:55:20.163Z,3.30
2022-11-28T19:57:54.328Z,3.30
2022-11-28T20:00:28.657Z,3.30
2022-11-28T20:03:02.609Z,3.30
2022-11-28T20:05:41.029Z,3.30
2022-11-28T20:08:24.124Z,3.30
2022-11-28T20:11:02.024Z,3.30
2022-11-28T20:13:37.703Z,3.30
2022-11-28T20:16:14.094Z,3.30
2022-11-28T20:18:48.823Z,3.30
2022-11-28T20:21:26.527Z,3.20
2022-11-28T20:24:04.473Z,3.20
2022-11-28T20:26:43.289Z,3.20
2022-11-28T20:29:20.033Z,3.20
2022-11-28T20:31:57.644Z,3.20
2022-11-28T20:34:33.913Z,3.20
2022-11-28T20:37:12.306Z,3.20
2022-11-28T20:39:47.350Z,3.20
2022-11-28T20:42:22.934Z,3.20
2022-11-28T20:44:57.889Z,3.20
2022-11-28T20:47:33.350Z,3.20
2022-11-28T20:50:09.163Z,3.10
2022-11-28T20:52:46.211Z,3.10
2022-11-28T20:55:24.144Z,3.10
2022-11-28T20:57:58.908Z,3.10
2022-11-28T21:00:34.472Z,3.00
2022-11-28T21:03:09.049Z,3.00
2022-11-28T21:05:43.688Z,3.00
2022-11-28T21:08:18.582Z,3.00
2022-11-28T21:10:56.151Z,3.00
2022-11-28T21:13:30.694Z,3.00
2022-11-28T21:16:09.087Z,2.90
2022-11-28T21:18:44.431Z,2.90
2022-11-28T21:21:19.022Z,2.90
2022-11-28T21:23:54.054Z,2.90
2022-11-28T21:26:33.972Z,2.90
2022-11-28T21:29:10.827Z,2.90
2022-11-28T21:31:46.003Z,2.90
2022-11-28T21:34:20.678Z,2.90
2022-11-28T21:36:54.180Z,2.80
2022-11-28T21:39:30.119Z,2.80
2022-11-28T21:42:07.818Z,2.80
2022-11-28T21:44:42.953Z,3.30
2022-11-28T21:47:20.076Z,2.80
2022-11-28T21:49:54.894Z,2.80
2022-11-28T21:52:31.007Z,2.80
2022-11-28T21:55:06.028Z,2.80
2022-11-28T21:57:44.117Z,2.80
2022-11-28T22:00:51.638Z,2.80
2022-11-28T22:03:16.719Z,2.80
2022-11-28T22:05:52.849Z,2.80
2022-11-28T22:08:27.512Z,2.70
2022-11-28T22:11:05.073Z,2.80
2022-11-28T22:13:42.711Z,2.70
2022-11-28T22:16:19.767Z,2.70
2022-11-28T22:18:58.837Z,2.70
2022-11-28T22:21:53.585Z,2.70
2022-11-28T22:24:31.941Z,2.70
2022-11-28T22:27:06.890Z,2.70
2022-11-28T22:29:44.991Z,2.60
2022-11-28T22:32:19.470Z,2.60
2022-11-28T22:34:54.801Z,2.50
2022-11-28T22:37:29.374Z,2.60
2022-11-28T22:40:03.647Z,2.50
2022-11-28T22:42:39.448Z,2.50
2022-11-28T22:45:16.809Z,2.50
2022-11-28T22:47:51.937Z,2.50
2022-11-28T22:50:26.185Z,2.50
2022-11-28T22:53:01.087Z,2.50
2022-11-28T22:55:35.721Z,2.40
2022-11-28T22:58:10.793Z,2.50
2022-11-28T23:00:48.403Z,2.40
2022-11-28T23:03:23.181Z,2.40
2022-11-28T23:05:56.752Z,2.50
2022-11-28T23:08:31.273Z,2.50
2022-11-28T23:11:08.136Z,2.50
2022-11-28T23:13:43.855Z,2.50
2022-11-28T23:16:22.676Z,2.80
2022-11-28T23:18:56.494Z,2.50
2022-11-28T23:21:31.892Z,2.50
2022-11-28T23:24:07.094Z,2.50
2022-11-28T23:26:42.023Z,2.50
2022-11-28T23:29:16.653Z,2.50
2022-11-28T23:31:54.851Z,2.50
2022-11-28T23:34:31.623Z,2.50
2022-11-28T23:37:08.443Z,2.50
2022-11-28T23:39:42.851Z,2.50
2022-11-28T23:42:15.550Z,2.50
2022-11-28T23:44:49.453Z,2.40
2022-11-28T23:47:25.901Z,2.40
2022-11-28T23:50:00.375Z,2.40
2022-11-28T23:52:35.886Z,2.40
2022-11-28T23:55:09.598Z,2.40
2022-11-28T23:57:43.746Z,2.50
